Golden Taka — H8EM — position and weather

sailwx.info

Track history (hours):
 
Tides and Currents Weather Stations Pressure Air Temp Water Temp Dewpoint Dewpoint Depression Visibility Wind Speed Wind Dir Waves Ship Positions

Golden Taka

Last reported at 2018-Jun-22 06:09 UTC. Time now 2018-Jun-25 02:23 UTC.
Position S 26°48' E 153°11'.

Length 144 m; draft 7.8 m.

Type: Ship (hazmat cat B). MMSI: 357039000.

Date/timePositionNaut miles runAvg speedWind from/ knotsBaromVisibWave heightAir tempDewpointWater temp
2018-Jun-22 06:09S 26°48' E 153°11'211.4
2018-Jun-22 05:56S 26°50' E 153°09'512.6
2018-Jun-22 05:30S 26°55' E 153°11'612.2
2018-Jun-22 05:01S 26°60' E 153°14'611.0
2018-Jun-22 04:30S 27°04' E 153°18'510.9
2018-Jun-22 04:00S 27°09' E 153°21'611.7
2018-Jun-22 03:30S 27°14' E 153°16'612.4
2018-Jun-22 03:00S 27°19' E 153°12'1 0.0
2018-Jun-20 04:00S 27°18' E 153°13'712.2
2018-Jun-20 03:26S 27°12' E 153°17'511.4
2018-Jun-20 02:58S 27°07' E 153°20'612.7
2018-Jun-20 02:30S 27°03' E 153°16'713.2
2018-Jun-20 01:59S 26°56' E 153°13'340 9.8
2018-Jun-18 15:14S 32°36' E 152°55'313.6
2018-Jun-18 15:00S 32°39' E 152°52'713.6
2018-Jun-18 14:30S 32°44' E 152°47'1113.9
2018-Jun-18 13:45S 32°52' E 152°39'314.0
2018-Jun-18 13:30S 32°55' E 152°37'713.1
2018-Jun-18 13:00S 33°00' E 152°32'612.5
2018-Jun-18 12:30S 33°05' E 152°27'612.4
2018-Jun-18 12:00S 33°09' E 152°22'3412.8
2018-Jun-18 09:19S 33°35' E 151°55'413.8
2018-Jun-18 09:00S 33°38' E 151°51'713.7
2018-Jun-18 08:30S 33°43' E 151°46'713.8
2018-Jun-18 08:00S 33°49' E 151°41'713.6
2018-Jun-18 07:30S 33°54' E 151°35'613.0
2018-Jun-18 07:00S 33°58' E 151°30'612.7
2018-Jun-18 06:30S 34°00' E 151°22'510.9
2018-Jun-18 06:00S 34°02' E 151°16'2 0.0
2018-Jun-16 03:24S 34°01' E 151°18'3 6.3
2018-Jun-16 02:59S 34°03' E 151°21'  
Track history (hours):
 
Tides and Currents Weather Stations Pressure Air Temp Water Temp Dewpoint Dewpoint Depression Visibility Wind Speed Wind Dir Waves Ship Positions

Golden Taka

Last reported at 2018-Jun-22 06:09 UTC. Time now 2018-Jun-25 02:23 UTC.
Position S 26°48' E 153°11'.

Length 144 m; draft 7.8 m.

Type: Ship (hazmat cat B). MMSI: 357039000.

Date/timePositionNaut miles runAvg speedWind from/ knotsBaromVisibWave heightAir tempDewpointWater temp
2018-Jun-22 06:09S 26°48' E 153°11'211.4
2018-Jun-22 05:56S 26°50' E 153°09'512.6
2018-Jun-22 05:30S 26°55' E 153°11'612.2
2018-Jun-22 05:01S 26°60' E 153°14'611.0
2018-Jun-22 04:30S 27°04' E 153°18'510.9
2018-Jun-22 04:00S 27°09' E 153°21'611.7
2018-Jun-22 03:30S 27°14' E 153°16'612.4
2018-Jun-22 03:00S 27°19' E 153°12'1 0.0
2018-Jun-20 04:00S 27°18' E 153°13'712.2
2018-Jun-20 03:26S 27°12' E 153°17'511.4
2018-Jun-20 02:58S 27°07' E 153°20'612.7
2018-Jun-20 02:30S 27°03' E 153°16'713.2
2018-Jun-20 01:59S 26°56' E 153°13'340 9.8
2018-Jun-18 15:14S 32°36' E 152°55'313.6
2018-Jun-18 15:00S 32°39' E 152°52'713.6
2018-Jun-18 14:30S 32°44' E 152°47'1113.9
2018-Jun-18 13:45S 32°52' E 152°39'314.0
2018-Jun-18 13:30S 32°55' E 152°37'713.1
2018-Jun-18 13:00S 33°00' E 152°32'612.5
2018-Jun-18 12:30S 33°05' E 152°27'612.4
2018-Jun-18 12:00S 33°09' E 152°22'3412.8
2018-Jun-18 09:19S 33°35' E 151°55'413.8
2018-Jun-18 09:00S 33°38' E 151°51'713.7
2018-Jun-18 08:30S 33°43' E 151°46'713.8
2018-Jun-18 08:00S 33°49' E 151°41'713.6
2018-Jun-18 07:30S 33°54' E 151°35'613.0
2018-Jun-18 07:00S 33°58' E 151°30'612.7
2018-Jun-18 06:30S 34°00' E 151°22'510.9
2018-Jun-18 06:00S 34°02' E 151°16'2 0.0
2018-Jun-16 03:24S 34°01' E 151°18'3 6.3
2018-Jun-16 02:59S 34°03' E 151°21'  

Dump ship's entire track history